Time;durP1;ratioP1;P1;durP2;ratioP2;P2;SDS_P1;SDS_P2;PMS_P1;PMS_P2;Temp;Humidity;BMP_temperature;BMP_pressure;BME280_temperature;BME280_humidity;BME280_pressure;Samples;Min_cycle;Max_cycle;Signal;HPM_P1;HPM_P2
2020/12/15 00:02:01;;;;;;;5.80;5.17;;;7.60;98.30;;;;;;5065769;23;20445;-81
2020/12/15 00:04:05;;;;;;;7.87;5.30;;;7.50;98.30;;;;;;5065399;23;21411;-81
2020/12/15 00:06:10;;;;;;;5.43;4.70;;;7.50;98.30;;;;;;5064918;23;20540;-82
2020/12/15 00:08:18;;;;;;;7.33;5.33;;;7.50;98.30;;;;;;5064890;23;20457;-78
2020/12/15 00:10:24;;;;;;;6.83;5.17;;;7.50;98.30;;;;;;5064752;23;20471;-81
2020/12/15 00:12:44;;;;;;;7.63;5.33;;;7.50;98.30;;;;;;5055997;23;20453;-80
2020/12/15 00:14:48;;;;;;;5.73;5.20;;;7.50;98.30;;;;;;5023771;23;20513;-80
2020/12/15 00:17:00;;;;;;;6.43;5.13;;;7.40;98.30;;;;;;5063754;23;21026;-80
2020/12/15 00:19:06;;;;;;;5.10;4.60;;;7.40;98.30;;;;;;5064143;23;20484;-79
2020/12/15 00:21:25;;;;;;;7.43;5.23;;;7.40;98.30;;;;;;5064480;23;20851;-81
2020/12/15 00:23:30;;;;;;;6.00;4.80;;;7.50;98.30;;;;;;5064819;23;20539;-82
2020/12/15 00:25:34;;;;;;;6.13;5.00;;;7.40;98.30;;;;;;5058832;23;20793;-82
2020/12/15 00:27:47;;;;;;;5.77;5.17;;;7.40;98.30;;;;;;5058126;23;20463;-79
2020/12/15 00:29:52;;;;;;;5.87;5.23;;;7.40;98.30;;;;;;5065967;23;20473;-80
2020/12/15 00:32:00;;;;;;;6.10;4.90;;;7.40;98.30;;;;;;5067681;23;20544;-79
2020/12/15 00:34:06;;;;;;;6.43;5.60;;;7.40;98.30;;;;;;5067016;23;20476;-82
2020/12/15 00:36:20;;;;;;;7.20;4.50;;;7.40;98.30;;;;;;5060231;23;20488;-80
2020/12/15 00:38:31;;;;;;;6.07;5.13;;;7.40;98.30;;;;;;5060143;23;20488;-81
2020/12/15 00:40:39;;;;;;;4.77;4.33;;;7.40;98.30;;;;;;5068685;23;20456;-79
2020/12/15 00:42:42;;;;;;;5.00;4.50;;;7.40;98.30;;;;;;5067630;23;20816;-81
2020/12/15 00:45:21;;;;;;;;;;;;;;;;;;;;;
2020/12/15 00:47:40;;;;;;;6.07;4.47;;;7.40;98.30;;;;;;5062407;23;20828;-81
2020/12/15 00:49:43;;;;;;;5.30;4.80;;;7.40;98.30;;;;;;5061925;23;20517;-80
2020/12/15 00:51:51;;;;;;;7.77;5.20;;;7.30;98.30;;;;;;5061795;23;20524;-82
2020/12/15 00:54:04;;;;;;;6.13;4.90;;;7.20;98.30;;;;;;5061721;23;20452;-82
2020/12/15 00:56:08;;;;;;;4.90;4.40;;;7.20;98.30;;;;;;5062326;23;20475;-82
2020/12/15 00:58:20;;;;;;;;;;;;;;;;;;;;;
2020/12/15 01:00:42;;;;;;;9.17;5.13;;;7.20;98.30;;;;;;5040101;23;20443;-80
2020/12/15 01:03:26;;;;;;;5.93;4.60;;;7.20;98.30;;;;;;5062318;23;20515;-82
2020/12/15 01:05:55;;;;;;;6.33;4.87;;;7.20;98.30;;;;;;5057231;23;21253;-79
2020/12/15 01:07:59;;;;;;;6.20;4.80;;;7.20;98.30;;;;;;4935390;24;20466;-81
2020/12/15 01:10:28;;;;;;;6.50;5.23;;;7.10;98.30;;;;;;4926351;23;20461;-82
2020/12/15 01:12:41;;;;;;;5.47;4.87;;;7.20;98.30;;;;;;5055038;23;20445;-80
2020/12/15 01:18:32;;;;;;;;;;;;;;;;;;;;;
2020/12/15 01:20:40;;;;;;;8.77;5.67;;;7.10;98.30;;;;;;4926553;23;20514;-80
2020/12/15 01:22:45;;;;;;;6.57;5.30;;;7.10;98.30;;;;;;4964586;23;20461;-82
2020/12/15 01:24:48;;;;;;;6.13;5.20;;;7.10;98.30;;;;;;4965545;23;20452;-81
2020/12/15 01:26:52;;;;;;;7.03;5.70;;;7.10;98.30;;;;;;4965479;23;20453;-79
2020/12/15 01:28:55;;;;;;;11.00;5.13;;;7.10;98.30;;;;;;4966292;23;20467;-81
2020/12/15 01:30:57;;;;;;;8.53;5.83;;;7.10;98.30;;;;;;4966490;23;20456;-81
2020/12/15 01:32:59;;;;;;;7.93;5.53;;;7.00;98.30;;;;;;4967483;23;20420;-82
2020/12/15 01:35:04;;;;;;;6.83;5.77;;;6.90;98.30;;;;;;4968764;23;20476;-81
2020/12/15 01:37:07;;;;;;;7.90;5.67;;;6.90;98.30;;;;;;4968681;23;20464;-81
2020/12/15 01:39:09;;;;;;;8.13;6.07;;;6.90;98.30;;;;;;4961230;23;20435;-80
2020/12/15 01:41:12;;;;;;;7.77;5.73;;;6.80;98.30;;;;;;4968282;23;20488;-79
2020/12/15 01:43:14;;;;;;;8.37;5.70;;;6.80;98.30;;;;;;4968176;23;20457;-79
2020/12/15 01:45:16;;;;;;;9.20;6.30;;;6.80;98.30;;;;;;4968821;23;20527;-80
2020/12/15 01:47:20;;;;;;;6.43;5.53;;;6.80;98.30;;;;;;4966987;23;20961;-81
2020/12/15 01:49:22;;;;;;;9.13;6.23;;;6.80;98.30;;;;;;5032320;23;21159;-82
2020/12/15 01:51:29;;;;;;;8.40;6.17;;;6.80;98.30;;;;;;5063349;23;20489;-79
2020/12/15 01:53:34;;;;;;;7.73;5.93;;;6.80;98.30;;;;;;5062810;23;20427;-80
2020/12/15 01:55:40;;;;;;;24.93;14.10;;;6.80;98.30;;;;;;5062964;23;20427;-82
2020/12/15 01:57:45;;;;;;;7.70;6.30;;;6.90;98.30;;;;;;5061996;23;20455;-81
2020/12/15 01:59:49;;;;;;;7.27;5.97;;;6.90;98.30;;;;;;5063278;23;20411;-81
2020/12/15 02:01:52;;;;;;;9.40;7.90;;;6.80;98.30;;;;;;5063396;23;20424;-81
2020/12/15 02:03:54;;;;;;;7.27;5.93;;;6.80;98.30;;;;;;5063358;23;20445;-81
2020/12/15 02:05:56;;;;;;;8.40;6.03;;;6.80;98.30;;;;;;5063592;23;20451;-82
2020/12/15 02:07:59;;;;;;;10.93;6.00;;;6.80;98.30;;;;;;5063677;23;20449;-81
2020/12/15 02:10:18;;;;;;;;;;;;;;;;;;;;;
2020/12/15 02:12:28;;;;;;;8.23;5.90;;;6.70;98.30;;;;;;5060672;23;20457;-80
2020/12/15 02:14:35;;;;;;;8.63;5.83;;;6.70;98.30;;;;;;5055411;23;20431;-82
2020/12/15 02:16:46;;;;;;;8.30;6.20;;;6.70;98.30;;;;;;5062140;23;20457;-82
2020/12/15 02:18:55;;;;;;;9.10;6.40;;;6.70;98.30;;;;;;5063151;23;20430;-80
2020/12/15 02:21:03;;;;;;;8.37;6.67;;;6.70;98.30;;;;;;5061733;23;20452;-81
2020/12/15 02:23:24;;;;;;;7.87;6.17;;;6.80;98.30;;;;;;5062733;23;20499;-81
2020/12/15 02:25:34;;;;;;;7.70;6.00;;;6.70;98.30;;;;;;5062798;23;20543;-81
2020/12/15 02:27:42;;;;;;;7.07;6.00;;;6.70;98.30;;;;;;5063767;23;20539;-79
2020/12/15 02:29:48;;;;;;;5.93;5.30;;;6.80;98.30;;;;;;5062942;23;20832;-81
2020/12/15 02:32:24;;;;;;;8.60;6.03;;;6.80;98.30;;;;;;5053711;23;20453;-80
2020/12/15 02:34:29;;;;;;;6.83;6.00;;;6.70;98.30;;;;;;5063254;23;20448;-82
2020/12/15 02:36:41;;;;;;;7.47;6.67;;;6.80;98.30;;;;;;5063480;23;20504;-82
2020/12/15 02:38:46;;;;;;;7.53;6.07;;;6.80;98.30;;;;;;5063052;23;20423;-81
2020/12/15 02:40:49;;;;;;;7.63;6.33;;;6.70;98.30;;;;;;5062799;23;20732;-82
2020/12/15 02:42:53;;;;;;;7.63;5.90;;;6.80;98.30;;;;;;5063223;23;20452;-80
2020/12/15 02:44:58;;;;;;;6.60;5.80;;;6.70;98.30;;;;;;5064755;23;20480;-81
2020/12/15 02:47:33;;;;;;;;;;;;;;;;;;;;;
2020/12/15 02:53:23;;;;;;;8.27;6.30;;;6.80;98.30;;;;;;4987397;23;20454;-81
2020/12/15 02:55:28;;;;;;;7.00;5.83;;;6.80;98.30;;;;;;5059860;23;20440;-82
2020/12/15 02:57:32;;;;;;;10.60;6.70;;;6.80;98.30;;;;;;5060927;23;20457;-82
2020/12/15 02:59:40;;;;;;;7.83;6.00;;;6.80;98.30;;;;;;5060393;23;20449;-81
2020/12/15 03:01:54;;;;;;;;;;;;;;;;;;;;;
2020/12/15 03:04:00;;;;;;;10.50;6.20;;;6.80;98.30;;;;;;5063705;23;21037;-81
2020/12/15 03:06:04;;;;;;;8.00;6.30;;;6.80;98.30;;;;;;5069239;23;20449;-80
2020/12/15 03:08:16;;;;;;;8.57;7.50;;;6.80;98.30;;;;;;5069268;23;20431;-79
2020/12/15 03:10:24;;;;;;;8.70;6.50;;;6.80;98.30;;;;;;5069034;23;20445;-78
2020/12/15 03:12:29;;;;;;;7.27;5.70;;;6.80;98.30;;;;;;5068661;23;20444;-78
2020/12/15 03:14:38;;;;;;;7.33;6.30;;;6.80;98.30;;;;;;5061559;23;20505;-80
2020/12/15 03:16:43;;;;;;;8.00;6.53;;;6.80;98.30;;;;;;5067897;23;20553;-78
2020/12/15 03:18:59;;;;;;;6.90;6.07;;;6.70;98.30;;;;;;5061562;23;20561;-79
2020/12/15 03:21:08;;;;;;;6.70;6.00;;;6.70;98.30;;;;;;5069100;23;20444;-80
2020/12/15 03:23:12;;;;;;;7.50;6.27;;;6.70;98.30;;;;;;5060562;23;20469;-80
2020/12/15 03:25:19;;;;;;;7.40;5.90;;;6.70;98.30;;;;;;5069796;23;20670;-82
2020/12/15 03:27:23;;;;;;;8.83;7.10;;;6.70;98.30;;;;;;5069387;23;20429;-82
2020/12/15 03:29:30;;;;;;;6.70;6.00;;;6.80;98.30;;;;;;5069315;23;20448;-81
2020/12/15 03:31:32;;;;;;;8.33;6.77;;;6.80;98.30;;;;;;5069427;23;20445;-80
2020/12/15 03:33:34;;;;;;;7.10;6.20;;;6.70;98.30;;;;;;5068650;23;20441;-80
2020/12/15 03:35:46;;;;;;;8.43;6.43;;;6.70;98.30;;;;;;5070423;23;20480;-82
2020/12/15 03:37:50;;;;;;;8.60;6.43;;;6.80;98.30;;;;;;5070550;23;20468;-80
2020/12/15 03:39:53;;;;;;;7.93;6.23;;;6.70;98.30;;;;;;5062303;23;20457;-81
2020/12/15 03:42:06;;;;;;;6.93;5.97;;;6.70;98.30;;;;;;5066378;23;20449;-80
2020/12/15 03:44:09;;;;;;;8.07;6.70;;;6.70;98.30;;;;;;5055472;23;20500;-80
2020/12/15 03:46:12;;;;;;;9.00;7.10;;;6.70;98.30;;;;;;5055302;23;20449;-80
2020/12/15 03:48:17;;;;;;;9.60;6.97;;;6.80;98.30;;;;;;5055150;23;20452;-80
2020/12/15 03:50:23;;;;;;;7.17;5.77;;;6.70;98.30;;;;;;5055553;23;20452;-80
2020/12/15 03:52:25;;;;;;;7.97;6.73;;;6.80;98.30;;;;;;5047480;23;20464;-81
2020/12/15 03:54:27;;;;;;;9.70;6.70;;;6.80;98.30;;;;;;5055482;23;20448;-81
2020/12/15 03:56:32;;;;;;;7.90;6.63;;;6.70;98.30;;;;;;5055048;23;20435;-80
2020/12/15 03:58:48;;;;;;;11.60;6.90;;;6.80;98.30;;;;;;5055176;23;20899;-81
2020/12/15 04:00:51;;;;;;;9.20;7.07;;;6.80;98.30;;;;;;5054593;23;20456;-80
2020/12/15 04:03:01;;;;;;;10.77;6.87;;;6.70;98.30;;;;;;5054923;23;20519;-80
2020/12/15 04:05:14;;;;;;;;;;;;;;;;;;;;;
2020/12/15 04:07:19;;;;;;;7.80;6.53;;;6.70;98.30;;;;;;5055542;23;20825;-80
2020/12/15 04:09:23;;;;;;;9.73;6.90;;;6.70;98.30;;;;;;5054409;23;20527;-80
2020/12/15 04:11:29;;;;;;;7.30;6.43;;;6.70;98.30;;;;;;5055480;23;20954;-80
2020/12/15 04:13:31;;;;;;;7.67;6.70;;;6.70;98.30;;;;;;5054786;23;20999;-80
2020/12/15 04:15:38;;;;;;;7.30;6.30;;;6.70;98.30;;;;;;5055135;23;20460;-80
2020/12/15 04:17:43;;;;;;;8.13;7.13;;;6.70;98.30;;;;;;5055093;23;20514;-80
2020/12/15 04:19:47;;;;;;;9.53;6.33;;;6.80;98.30;;;;;;5055372;23;20512;-81
2020/12/15 04:21:55;;;;;;;8.43;6.70;;;6.80;98.30;;;;;;5046428;23;20979;-80
2020/12/15 04:24:10;;;;;;;;;;;;;;;;;;;;;
2020/12/15 04:26:38;;;;;;;;;;;;;;;;;;;;;
2020/12/15 04:29:12;;;;;;;7.67;6.57;;;6.70;98.30;;;;;;5066084;23;20444;-80
2020/12/15 04:31:20;;;;;;;7.37;6.57;;;6.70;98.30;;;;;;5056105;23;20457;-80
2020/12/15 04:33:38;;;;;;;8.27;6.67;;;6.70;98.30;;;;;;5055441;23;20448;-80
2020/12/15 04:35:54;;;;;;;8.37;6.17;;;6.60;98.30;;;;;;5046664;23;20480;-80
2020/12/15 04:38:05;;;;;;;8.87;7.17;;;6.60;98.30;;;;;;5053919;23;20423;-80
2020/12/15 04:40:13;;;;;;;8.47;6.47;;;6.60;98.30;;;;;;5053808;23;20457;-80
2020/12/15 04:42:20;;;;;;;8.53;6.80;;;6.60;98.30;;;;;;5054086;23;20554;-80
2020/12/15 04:44:22;;;;;;;9.67;7.57;;;6.70;98.30;;;;;;5045208;23;20539;-80
2020/12/15 04:46:30;;;;;;;7.93;6.90;;;6.70;98.30;;;;;;5053687;23;20480;-81
2020/12/15 04:48:57;;;;;;;8.77;7.17;;;6.70;98.30;;;;;;5057415;23;20472;-80
2020/12/15 04:51:01;;;;;;;9.10;6.87;;;6.70;98.30;;;;;;5050455;23;20431;-80
2020/12/15 04:53:09;;;;;;;8.60;6.53;;;6.60;98.30;;;;;;5045345;23;21524;-80
2020/12/15 04:55:14;;;;;;;7.67;6.90;;;6.70;98.30;;;;;;5051449;23;20460;-80
2020/12/15 04:57:21;;;;;;;10.73;6.90;;;6.70;98.30;;;;;;5051503;23;20964;-80
2020/12/15 04:59:32;;;;;;;7.37;6.67;;;6.70;98.30;;;;;;5043493;23;20463;-80
2020/12/15 05:02:10;;;;;;;;;;;;;;;;;;;;;
2020/12/15 05:11:37;;;;;;;;;;;;;;;;;;;;;
2020/12/15 05:14:56;;;;;;;;;;;;;;;;;;;;;
2020/12/15 05:21:27;;;;;;;;;;;;;;;;;;;;;
2020/12/15 05:24:02;;;;;;;8.20;7.33;;;6.60;98.30;;;;;;4845587;24;20447;-80
2020/12/15 05:26:07;;;;;;;8.97;7.10;;;6.70;98.30;;;;;;4931857;24;20446;-80
2020/12/15 05:28:12;;;;;;;11.87;7.10;;;6.70;98.30;;;;;;4931593;24;20474;-80
2020/12/15 05:30:20;;;;;;;11.90;7.63;;;6.60;98.30;;;;;;4972405;23;20503;-81
2020/12/15 05:32:29;;;;;;;9.20;7.70;;;6.70;98.30;;;;;;4977987;23;20786;-81
2020/12/15 05:34:38;;;;;;;8.93;6.53;;;6.70;98.30;;;;;;4970735;23;20483;-80
2020/12/15 05:36:55;;;;;;;8.43;7.63;;;6.70;98.30;;;;;;4970675;23;20464;-80
2020/12/15 05:39:09;;;;;;;8.33;7.00;;;6.60;98.30;;;;;;4978938;23;20479;-80
2020/12/15 05:41:43;;;;;;;9.13;7.50;;;6.70;98.30;;;;;;4979268;23;20460;-80
2020/12/15 05:44:03;;;;;;;9.53;7.07;;;6.70;98.30;;;;;;4978712;23;20506;-80
2020/12/15 05:46:33;;;;;;;7.93;7.10;;;6.80;98.30;;;;;;5013135;23;20460;-80
2020/12/15 05:48:39;;;;;;;8.53;6.87;;;6.80;98.30;;;;;;5052617;23;20453;-81
2020/12/15 05:51:05;;;;;;;10.20;7.20;;;6.80;98.30;;;;;;5053660;23;20428;-81
2020/12/15 05:53:11;;;;;;;7.80;6.73;;;6.80;98.30;;;;;;5054484;23;21024;-80
2020/12/15 05:55:55;;;;;;;9.10;7.40;;;6.70;98.30;;;;;;5054110;23;20455;-81
2020/12/15 05:58:39;;;;;;;8.60;7.30;;;6.80;98.30;;;;;;5036871;23;20445;-81
2020/12/15 06:00:52;;;;;;;9.83;7.70;;;6.80;98.30;;;;;;5045507;23;20488;-80
2020/12/15 06:03:18;;;;;;;11.27;8.03;;;6.80;98.30;;;;;;5053808;23;20524;-80
2020/12/15 06:05:27;;;;;;;12.70;7.83;;;6.80;98.30;;;;;;5044655;23;20457;-80
2020/12/15 06:07:34;;;;;;;12.43;7.93;;;6.90;98.30;;;;;;5052998;23;20476;-80
2020/12/15 06:09:39;;;;;;;7.83;7.03;;;6.80;98.30;;;;;;5044711;23;20453;-79
2020/12/15 06:11:46;;;;;;;10.57;8.50;;;6.70;98.30;;;;;;5052800;23;20449;-80
2020/12/15 06:13:54;;;;;;;11.23;7.53;;;6.70;98.30;;;;;;5052968;23;20456;-80
2020/12/15 06:16:02;;;;;;;10.10;7.90;;;6.70;98.30;;;;;;5053003;23;20927;-80
2020/12/15 06:18:12;;;;;;;15.10;8.93;;;6.70;98.30;;;;;;5053276;23;20766;-80
2020/12/15 06:20:19;;;;;;;10.00;8.50;;;6.70;98.30;;;;;;5053090;23;20448;-80
2020/12/15 06:22:22;;;;;;;10.40;8.03;;;6.70;98.30;;;;;;5052312;23;20465;-80
2020/12/15 06:24:28;;;;;;;10.23;8.23;;;6.60;98.30;;;;;;5053525;23;20509;-80
2020/12/15 06:26:34;;;;;;;10.07;9.00;;;6.70;98.30;;;;;;5053438;23;20449;-81
2020/12/15 06:28:40;;;;;;;12.50;8.50;;;6.70;98.30;;;;;;5053278;23;20441;-80
2020/12/15 06:30:45;;;;;;;11.23;8.70;;;6.60;98.30;;;;;;5052508;23;20821;-80
2020/12/15 06:32:59;;;;;;;10.20;8.87;;;6.70;98.30;;;;;;5052758;23;21015;-80
2020/12/15 06:35:08;;;;;;;11.37;8.87;;;6.70;98.30;;;;;;5053118;23;20523;-80
2020/12/15 06:37:29;;;;;;;12.60;8.10;;;6.60;98.30;;;;;;5053201;23;20527;-80
2020/12/15 06:39:33;;;;;;;11.43;8.77;;;6.70;98.30;;;;;;5052281;23;20967;-80
2020/12/15 06:41:39;;;;;;;11.40;8.73;;;6.70;98.30;;;;;;5052388;23;20434;-80
2020/12/15 06:43:46;;;;;;;15.17;9.13;;;6.70;98.30;;;;;;5052334;23;20471;-80
2020/12/15 06:45:57;;;;;;;12.30;8.53;;;6.70;98.30;;;;;;5052717;23;20460;-80
2020/12/15 06:48:10;;;;;;;13.67;9.20;;;6.70;98.30;;;;;;5053068;23;20507;-80
2020/12/15 06:50:22;;;;;;;12.97;9.60;;;6.70;98.30;;;;;;5053459;23;20464;-80
2020/12/15 06:52:36;;;;;;;11.30;8.87;;;6.70;98.30;;;;;;5044831;23;20842;-79
2020/12/15 06:55:10;;;;;;;;;;;;;;;;;;;;;
2020/12/15 06:57:12;;;;;;;12.33;9.07;;;6.80;98.30;;;;;;5052754;23;20926;-82
2020/12/15 06:59:18;;;;;;;12.20;8.43;;;6.80;98.30;;;;;;5053193;23;20951;-82
2020/12/15 07:01:25;;;;;;;11.97;8.10;;;6.70;98.30;;;;;;5053941;23;20504;-83
2020/12/15 07:03:43;;;;;;;13.20;9.20;;;6.80;98.30;;;;;;5054268;23;20448;-83
2020/12/15 07:06:10;;;;;;;13.17;9.47;;;6.80;98.30;;;;;;5053670;23;20564;-82
2020/12/15 07:08:28;;;;;;;10.37;8.07;;;6.80;98.30;;;;;;5053881;23;20444;-83
2020/12/15 07:10:33;;;;;;;9.73;8.43;;;6.80;98.30;;;;;;5055039;23;20535;-83
2020/12/15 07:12:42;;;;;;;12.57;9.03;;;6.90;98.30;;;;;;5055518;23;20437;-83
2020/12/15 07:14:56;;;;;;;10.63;8.60;;;6.90;98.30;;;;;;5055266;23;20477;-83
2020/12/15 07:16:59;;;;;;;10.03;8.00;;;6.90;98.30;;;;;;5047959;23;20568;-82
2020/12/15 07:19:06;;;;;;;11.60;9.00;;;6.80;98.30;;;;;;5054927;23;20430;-82
2020/12/15 07:21:31;;;;;;;13.13;8.83;;;6.90;98.30;;;;;;5055778;23;20444;-83
2020/12/15 07:23:39;;;;;;;10.60;8.87;;;6.90;98.30;;;;;;5047822;23;20515;-82
2020/12/15 07:25:52;;;;;;;9.90;7.67;;;6.90;98.30;;;;;;5055494;23;20448;-83
2020/12/15 07:27:58;;;;;;;17.60;9.80;;;6.90;98.30;;;;;;5055181;23;20440;-83
2020/12/15 07:30:26;;;;;;;13.50;9.10;;;6.90;98.30;;;;;;5055358;23;20455;-83
2020/12/15 07:33:05;;;;;;;11.90;9.50;;;6.90;98.30;;;;;;5055635;23;20460;-83
2020/12/15 07:35:23;;;;;;;;;;;;;;;;;;;;;
2020/12/15 07:37:31;;;;;;;11.07;8.17;;;6.90;98.30;;;;;;5042423;23;20812;-82
2020/12/15 07:39:36;;;;;;;11.17;8.93;;;7.00;98.30;;;;;;5054740;23;20471;-83
2020/12/15 07:41:40;;;;;;;12.53;8.83;;;7.00;98.30;;;;;;5054820;23;21011;-82
2020/12/15 07:43:58;;;;;;;11.80;9.60;;;6.90;98.30;;;;;;5054376;23;21041;-82
2020/12/15 07:46:02;;;;;;;11.23;8.33;;;6.90;98.30;;;;;;5055658;23;20818;-82
2020/12/15 07:48:13;;;;;;;11.97;8.57;;;7.00;98.30;;;;;;5046791;23;20457;-82
2020/12/15 07:50:32;;;;;;;12.50;9.37;;;7.00;98.30;;;;;;5054681;23;20414;-83
2020/12/15 07:52:59;;;;;;;;;;;;;;;;;;;;;
2020/12/15 07:55:51;;;;;;;13.97;8.60;;;7.10;98.30;;;;;;5058752;23;20456;-83
2020/12/15 08:00:55;;;;;;;10.30;8.43;;;7.10;98.30;;;;;;5057943;23;20460;-82
2020/12/15 08:03:17;;;;;;;10.87;9.00;;;7.10;98.30;;;;;;5067016;23;20452;-83
2020/12/15 08:06:19;;;;;;;12.67;8.37;;;7.20;98.30;;;;;;5012945;23;20467;-83
2020/12/15 08:08:34;;;;;;;12.40;9.03;;;7.20;98.30;;;;;;5068669;23;20663;-80
2020/12/15 08:17:41;;;;;;;14.90;9.27;;;7.20;98.30;;;;;;4902062;23;20575;-80
2020/12/15 08:23:54;;;;;;;12.20;9.27;;;7.20;98.30;;;;;;4857720;24;20486;-81
2020/12/15 08:26:22;;;;;;;13.67;9.57;;;7.20;98.30;;;;;;5018294;23;20507;-80
2020/12/15 08:29:03;;;;;;;13.80;9.40;;;7.30;98.30;;;;;;5017210;23;20547;-81
2020/12/15 08:34:16;;;;;;;12.20;9.10;;;7.30;98.30;;;;;;4988735;23;20536;-81
2020/12/15 08:39:47;;;;;;;13.60;10.00;;;7.30;98.30;;;;;;4906486;24;20487;-81
2020/12/15 08:49:00;;;;;;;;;;;;;;;;;;;;;
2020/12/15 08:55:07;;;;;;;14.13;9.10;;;7.40;98.30;;;;;;5041735;23;20465;-81
2020/12/15 09:18:02;;;;;;;;;;;;;;;;;;;;;
2020/12/15 09:20:09;;;;;;;14.50;10.70;;;7.50;98.30;;;;;;4858349;24;20774;-81
2020/12/15 09:25:29;;;;;;;19.90;10.43;;;7.50;98.30;;;;;;4934474;24;20493;-81
2020/12/15 09:28:01;;;;;;;13.70;9.67;;;7.70;98.30;;;;;;4856639;24;20468;-81
2020/12/15 09:31:14;;;;;;;15.73;10.60;;;7.60;98.30;;;;;;4866114;24;20480;-81
2020/12/15 09:40:05;;;;;;;13.90;10.13;;;7.60;98.30;;;;;;4937752;23;20461;-81
2020/12/15 09:43:27;;;;;;;;;;;;;;;;;;;;;
2020/12/15 09:46:30;;;;;;;;;;;;;;;;;;;;;
2020/12/15 09:49:37;;;;;;;;;;;;;;;;;;;;;
2020/12/15 12:11:29;;;;;;;14.50;11.63;;;8.70;98.30;;;;;;5026977;23;20492;-79
2020/12/15 12:13:31;;;;;;;23.03;12.70;;;8.70;98.30;;;;;;5045282;23;20568;-83
2020/12/15 12:15:34;;;;;;;17.70;12.47;;;8.80;98.30;;;;;;5056076;23;20425;-83
2020/12/15 12:17:36;;;;;;;17.43;13.47;;;8.80;98.30;;;;;;5056506;23;20468;-79
2020/12/15 12:19:38;;;;;;;17.30;13.37;;;8.70;98.30;;;;;;5055189;23;20437;-81
2020/12/15 12:21:40;;;;;;;16.40;11.93;;;8.70;98.30;;;;;;5055692;23;20429;-81
2020/12/15 12:23:42;;;;;;;13.90;12.10;;;8.70;98.30;;;;;;5047665;23;20596;-81
2020/12/15 12:25:44;;;;;;;19.30;12.87;;;8.60;98.30;;;;;;5055136;23;20425;-83
2020/12/15 12:27:47;;;;;;;20.93;13.70;;;8.70;98.30;;;;;;5046394;23;20429;-83
2020/12/15 12:29:48;;;;;;;16.40;12.37;;;8.60;98.30;;;;;;5055552;23;20467;-82
2020/12/15 12:31:53;;;;;;;18.73;12.47;;;8.70;98.30;;;;;;5056046;23;20421;-82
2020/12/15 12:33:55;;;;;;;18.80;13.70;;;8.80;98.30;;;;;;5056187;23;20426;-85
2020/12/15 12:35:57;;;;;;;15.90;12.43;;;8.80;98.30;;;;;;5050525;23;20439;-81
2020/12/15 12:37:59;;;;;;;16.10;13.20;;;8.80;98.30;;;;;;5058219;23;20441;-84
2020/12/15 12:40:01;;;;;;;16.23;12.57;;;8.70;98.30;;;;;;5053902;23;20425;-85
2020/12/15 12:42:03;;;;;;;15.83;12.93;;;8.70;98.30;;;;;;5046387;23;20453;-81
2020/12/15 12:44:06;;;;;;;16.20;13.47;;;8.80;98.30;;;;;;5055041;23;20927;-82
2020/12/15 12:46:13;;;;;;;17.03;12.53;;;8.70;98.30;;;;;;5045970;23;20738;-82
2020/12/15 12:48:17;;;;;;;19.87;12.90;;;8.70;98.30;;;;;;5053917;23;20484;-84
2020/12/15 12:50:18;;;;;;;20.33;12.77;;;8.70;98.30;;;;;;5046362;23;20929;-83
2020/12/15 12:52:20;;;;;;;17.50;12.40;;;8.70;98.30;;;;;;5045127;23;20453;-84
2020/12/15 12:54:22;;;;;;;15.73;13.13;;;8.60;98.30;;;;;;5055926;23;20421;-85
2020/12/15 12:56:24;;;;;;;17.97;14.77;;;8.60;98.30;;;;;;5047021;23;20433;-85
2020/12/15 12:58:26;;;;;;;16.77;12.37;;;8.70;98.30;;;;;;5055201;23;20449;-83
2020/12/15 13:00:29;;;;;;;16.90;12.70;;;8.70;98.30;;;;;;5054128;23;20429;-84
2020/12/15 13:02:31;;;;;;;17.77;13.80;;;8.70;98.30;;;;;;5046643;23;20461;-82
2020/12/15 13:04:33;;;;;;;20.33;15.03;;;8.70;98.30;;;;;;5047148;23;20512;-83
2020/12/15 13:06:36;;;;;;;18.07;13.70;;;8.80;98.30;;;;;;5047311;23;20757;-83
2020/12/15 13:08:37;;;;;;;16.83;12.93;;;8.80;98.30;;;;;;5053692;23;20425;-83
2020/12/15 13:10:56;;;;;;;19.63;13.47;;;8.70;98.30;;;;;;5053577;23;20802;-84
2020/12/15 13:12:58;;;;;;;19.20;14.30;;;8.70;98.30;;;;;;5046487;23;20449;-84
2020/12/15 13:15:00;;;;;;;16.90;12.90;;;8.70;98.30;;;;;;5054754;23;20519;-82
2020/12/15 13:17:03;;;;;;;16.63;12.53;;;8.80;98.30;;;;;;5045974;23;20456;-82
2020/12/15 13:19:05;;;;;;;18.00;13.80;;;8.90;98.30;;;;;;5045400;23;20449;-81
2020/12/15 13:21:07;;;;;;;20.40;14.50;;;8.90;98.30;;;;;;5046125;23;20519;-82
2020/12/15 13:23:08;;;;;;;16.97;13.70;;;8.90;98.30;;;;;;5053965;23;20441;-82
2020/12/15 13:25:11;;;;;;;18.03;14.00;;;8.90;98.30;;;;;;5046357;23;20488;-82
2020/12/15 13:27:13;;;;;;;19.23;13.50;;;8.80;98.30;;;;;;5054252;23;20433;-81
2020/12/15 13:29:15;;;;;;;18.03;14.30;;;8.90;98.30;;;;;;5045851;23;20508;-82
2020/12/15 13:31:18;;;;;;;17.47;13.37;;;9.00;98.30;;;;;;5045606;23;20429;-83
2020/12/15 13:33:21;;;;;;;20.50;14.27;;;9.00;98.30;;;;;;5054865;23;20768;-83
2020/12/15 13:36:08;;;;;;;21.10;14.87;;;9.00;98.30;;;;;;5044939;23;20950;-81
2020/12/15 13:38:11;;;;;;;20.50;13.60;;;9.00;98.30;;;;;;5044913;23;20495;-82
2020/12/15 13:40:12;;;;;;;17.50;13.90;;;8.90;98.30;;;;;;5045573;23;20433;-81
2020/12/15 13:42:15;;;;;;;21.53;15.27;;;9.00;98.30;;;;;;5050229;23;20488;-81
2020/12/15 13:44:17;;;;;;;22.50;14.40;;;9.00;98.30;;;;;;5045309;23;20439;-81
2020/12/15 13:46:19;;;;;;;20.97;14.53;;;9.00;98.30;;;;;;5045619;23;20429;-81
2020/12/15 13:48:22;;;;;;;19.40;14.63;;;9.00;98.30;;;;;;5045312;23;20461;-82
2020/12/15 13:50:24;;;;;;;21.27;15.17;;;8.90;98.30;;;;;;5045852;23;20433;-82
2020/12/15 13:52:27;;;;;;;21.97;15.53;;;8.90;98.30;;;;;;5045030;23;20449;-83
2020/12/15 13:54:29;;;;;;;20.50;15.20;;;8.90;98.30;;;;;;5053502;23;20429;-82
2020/12/15 13:56:31;;;;;;;17.83;14.67;;;8.90;98.30;;;;;;5045596;23;20443;-82
2020/12/15 13:58:33;;;;;;;20.23;14.40;;;9.00;98.30;;;;;;5052934;23;20947;-82
2020/12/15 14:00:39;;;;;;;20.93;15.00;;;9.00;98.30;;;;;;5045522;23;20507;-82
2020/12/15 14:02:41;;;;;;;24.00;15.00;;;9.00;98.30;;;;;;5045745;23;20452;-81
2020/12/15 14:04:43;;;;;;;20.10;14.33;;;8.90;98.30;;;;;;5045971;23;20433;-82
2020/12/15 14:06:46;;;;;;;22.53;13.57;;;8.90;98.30;;;;;;5045972;23;20514;-81
2020/12/15 14:08:48;;;;;;;20.07;15.00;;;8.90;98.30;;;;;;5053914;23;20428;-82
2020/12/15 14:11:04;;;;;;;20.50;14.97;;;8.90;98.30;;;;;;5053822;23;20437;-82
2020/12/15 14:13:06;;;;;;;22.47;16.17;;;8.90;98.30;;;;;;5045796;23;20453;-82
2020/12/15 14:15:08;;;;;;;23.60;16.60;;;8.80;98.30;;;;;;5046262;23;20438;-83
2020/12/15 14:17:10;;;;;;;20.33;14.60;;;8.80;98.30;;;;;;5045972;23;20530;-82
2020/12/15 14:19:12;;;;;;;23.13;17.17;;;8.80;98.30;;;;;;5045335;23;20974;-82
2020/12/15 14:21:15;;;;;;;25.00;16.37;;;8.80;98.30;;;;;;5045824;23;20455;-82
2020/12/15 14:23:17;;;;;;;25.30;17.10;;;8.80;98.30;;;;;;5053413;23;20456;-81
2020/12/15 14:25:19;;;;;;;26.93;17.47;;;8.70;98.30;;;;;;5046205;23;20512;-82
2020/12/15 14:27:21;;;;;;;29.60;18.03;;;8.80;98.30;;;;;;5046083;23;20436;-81
2020/12/15 14:29:23;;;;;;;24.83;16.60;;;8.80;98.30;;;;;;5044303;23;20429;-81
2020/12/15 14:31:29;;;;;;;26.97;17.97;;;8.80;98.30;;;;;;5045074;23;20532;-81
2020/12/15 14:33:31;;;;;;;26.33;17.27;;;8.80;98.30;;;;;;5052371;23;21000;-80
2020/12/15 14:35:33;;;;;;;23.47;16.90;;;8.80;98.30;;;;;;5044096;23;20433;-80
2020/12/15 14:37:36;;;;;;;26.23;18.00;;;8.70;98.30;;;;;;5044847;23;20429;-81
2020/12/15 14:39:38;;;;;;;26.73;17.97;;;8.80;98.30;;;;;;5044440;23;21097;-81
2020/12/15 14:41:45;;;;;;;32.10;18.43;;;8.80;98.30;;;;;;5045058;23;20788;-81
2020/12/15 14:43:48;;;;;;;30.93;21.50;;;8.70;98.30;;;;;;5044116;23;20468;-80
2020/12/15 14:45:50;;;;;;;23.83;18.47;;;8.60;98.30;;;;;;5044598;23;20512;-80
2020/12/15 14:47:51;;;;;;;31.50;20.30;;;8.70;98.30;;;;;;5044673;23;20440;-79
2020/12/15 14:49:53;;;;;;;23.17;17.33;;;8.70;98.30;;;;;;5044480;23;20433;-80
2020/12/15 14:51:55;;;;;;;24.30;17.67;;;8.70;98.30;;;;;;5044077;23;20456;-80
2020/12/15 14:53:58;;;;;;;27.63;19.37;;;8.70;98.30;;;;;;5044790;23;20435;-80
2020/12/15 14:56:00;;;;;;;26.97;18.90;;;8.60;98.30;;;;;;5052755;23;20451;-79
2020/12/15 14:58:02;;;;;;;23.60;17.90;;;8.60;98.30;;;;;;5044431;23;20449;-80
2020/12/15 15:00:05;;;;;;;29.57;18.40;;;8.60;98.30;;;;;;5045168;23;20436;-81
2020/12/15 15:02:07;;;;;;;30.33;19.90;;;8.60;98.30;;;;;;5053029;23;20455;-79
2020/12/15 15:04:09;;;;;;;26.20;18.20;;;8.60;98.30;;;;;;5043847;23;20967;-79
2020/12/15 15:06:15;;;;;;;28.90;19.90;;;8.50;98.30;;;;;;5043420;23;21018;-79
2020/12/15 15:08:23;;;;;;;25.90;17.90;;;8.50;98.30;;;;;;5050244;23;20479;-80
2020/12/15 15:10:26;;;;;;;26.40;17.67;;;8.50;98.30;;;;;;5043715;23;20421;-80
2020/12/15 15:12:28;;;;;;;26.03;17.60;;;8.50;98.30;;;;;;5043554;23;20457;-79
2020/12/15 15:14:30;;;;;;;30.80;18.87;;;8.60;98.30;;;;;;5052508;23;20433;-79
